createdAt,value
2023-01-09T00:01:32.697Z,6.60
2023-01-09T00:04:00.660Z,6.80
2023-01-09T00:06:28.697Z,6.80
2023-01-09T00:08:58.246Z,6.30
2023-01-09T00:11:26.178Z,6.60
2023-01-09T00:13:54.084Z,6.40
2023-01-09T00:16:22.184Z,6.70
2023-01-09T00:18:50.409Z,6.80
2023-01-09T00:21:18.345Z,6.80
2023-01-09T00:23:46.324Z,6.80
2023-01-09T00:26:18.021Z,6.50
2023-01-09T00:28:46.013Z,6.80
2023-01-09T00:31:14.330Z,6.80
2023-01-09T00:33:44.347Z,7.10
2023-01-09T00:36:12.938Z,8.30
2023-01-09T00:38:41.946Z,7.00
2023-01-09T00:41:14.804Z,6.90
2023-01-09T00:43:48.113Z,6.70
2023-01-09T00:46:18.193Z,6.80
2023-01-09T00:48:48.151Z,6.80
2023-01-09T00:51:16.747Z,6.70
2023-01-09T00:53:45.006Z,7.00
2023-01-09T00:56:17.592Z,7.20
2023-01-09T00:58:47.292Z,7.90
2023-01-09T01:01:15.994Z,7.30
2023-01-09T01:03:44.137Z,7.40
2023-01-09T01:06:29.376Z,7.70
2023-01-09T01:08:57.282Z,7.20
2023-01-09T01:11:25.830Z,7.40
2023-01-09T01:13:55.425Z,7.30
2023-01-09T01:16:23.401Z,7.20
2023-01-09T01:18:51.523Z,7.60
2023-01-09T01:21:19.604Z,8.50
2023-01-09T01:23:47.548Z,7.60
2023-01-09T01:26:17.319Z,7.70
2023-01-09T01:28:45.387Z,7.70
2023-01-09T01:31:19.288Z,7.70
2023-01-09T01:33:47.829Z,7.70
2023-01-09T01:36:17.497Z,7.60
2023-01-09T01:38:46.788Z,7.70
2023-01-09T01:41:14.785Z,7.60
2023-01-09T01:43:53.386Z,7.50
2023-01-09T01:46:22.864Z,7.70
2023-01-09T01:48:55.099Z,8.40
2023-01-09T01:51:25.776Z,7.50
2023-01-09T01:53:58.459Z,7.40
2023-01-09T01:56:29.707Z,7.40
2023-01-09T01:59:04.405Z,7.20
2023-01-09T02:01:34.776Z,7.40
2023-01-09T02:04:03.712Z,7.40
2023-01-09T02:06:33.016Z,7.50
2023-01-09T02:09:01.600Z,7.30
2023-01-09T02:11:29.997Z,7.10
2023-01-09T02:13:58.272Z,7.30
2023-01-09T02:16:39.165Z,7.30
2023-01-09T02:19:18.553Z,7.30
2023-01-09T02:21:59.380Z,7.30
2023-01-09T02:24:56.214Z,7.30
2023-01-09T02:27:46.148Z,7.30
2023-01-09T02:30:31.167Z,7.30
2023-01-09T02:33:26.777Z,7.30
2023-01-09T02:36:13.039Z,7.30
2023-01-09T02:38:49.190Z,7.30
2023-01-09T02:41:22.344Z,7.20
2023-01-09T02:44:16.164Z,7.20
2023-01-09T02:46:45.841Z,7.10
2023-01-09T02:49:14.415Z,7.10
2023-01-09T02:51:52.407Z,7.00
2023-01-09T02:54:30.462Z,7.00
2023-01-09T02:57:15.476Z,6.90
2023-01-09T02:59:56.341Z,6.90
2023-01-09T03:02:37.341Z,6.90
2023-01-09T03:05:12.159Z,6.80
2023-01-09T03:07:46.572Z,6.80
2023-01-09T03:10:20.268Z,6.70
2023-01-09T03:12:52.641Z,6.70
2023-01-09T03:15:26.237Z,6.60
2023-01-09T03:17:56.806Z,6.80
2023-01-09T03:20:27.670Z,6.60
2023-01-09T03:22:57.046Z,6.60
2023-01-09T03:25:26.000Z,6.90
2023-01-09T03:27:57.639Z,6.60
2023-01-09T03:30:26.386Z,6.90
2023-01-09T03:32:55.836Z,6.60
2023-01-09T03:35:24.179Z,6.60
2023-01-09T03:37:52.653Z,6.60
2023-01-09T03:40:21.151Z,6.60
2023-01-09T03:42:49.074Z,6.60
2023-01-09T03:45:16.991Z,6.60
2023-01-09T03:47:44.883Z,6.60
2023-01-09T03:50:14.266Z,6.60
2023-01-09T03:52:42.139Z,6.20
2023-01-09T03:55:10.386Z,6.50
2023-01-09T03:57:38.377Z,6.60
2023-01-09T04:00:08.463Z,6.70
2023-01-09T04:02:36.501Z,6.50
2023-01-09T04:05:04.407Z,6.70
2023-01-09T04:07:33.665Z,6.20
2023-01-09T04:10:01.555Z,6.50
2023-01-09T04:12:29.440Z,6.50
2023-01-09T04:14:57.311Z,6.70
2023-01-09T04:17:25.164Z,6.50
2023-01-09T04:19:53.062Z,6.40
2023-01-09T04:22:20.945Z,6.00
2023-01-09T04:24:50.132Z,6.60
2023-01-09T04:27:18.141Z,6.60
2023-01-09T04:29:46.085Z,6.00
2023-01-09T04:32:13.955Z,6.60
2023-01-09T04:34:41.807Z,6.60
2023-01-09T04:37:09.746Z,7.00
2023-01-09T04:39:38.274Z,6.60
2023-01-09T04:42:07.512Z,6.50
2023-01-09T04:44:35.556Z,6.50
2023-01-09T04:47:03.441Z,6.60
2023-01-09T04:49:31.421Z,6.50
2023-01-09T04:51:59.445Z,6.50
2023-01-09T04:54:27.704Z,6.80
2023-01-09T04:56:55.596Z,6.60
2023-01-09T04:59:24.881Z,6.50
2023-01-09T05:01:54.701Z,6.50
2023-01-09T05:04:22.717Z,6.90
2023-01-09T05:06:50.617Z,6.80
2023-01-09T05:09:18.740Z,6.20
2023-01-09T05:11:46.611Z,6.50
2023-01-09T05:14:14.504Z,6.40
2023-01-09T05:16:43.822Z,6.70
2023-01-09T05:19:11.898Z,7.90
2023-01-09T05:21:39.787Z,6.60
2023-01-09T05:24:08.265Z,6.40
2023-01-09T05:26:36.377Z,6.30
2023-01-09T05:29:04.294Z,6.30
2023-01-09T05:31:32.212Z,6.30
2023-01-09T05:34:01.500Z,6.30
2023-01-09T05:36:29.695Z,6.20
2023-01-09T05:38:58.174Z,5.90
2023-01-09T05:41:26.318Z,6.10
2023-01-09T05:43:54.317Z,6.30
2023-01-09T05:46:22.192Z,6.30
2023-01-09T05:48:50.111Z,6.00
2023-01-09T05:51:19.596Z,6.00
2023-01-09T05:53:47.481Z,5.90
2023-01-09T05:56:15.507Z,6.50
2023-01-09T05:58:43.504Z,5.90
2023-01-09T06:01:11.446Z,5.70
2023-01-09T06:03:39.330Z,6.00
2023-01-09T06:06:07.872Z,5.70
2023-01-09T06:08:37.095Z,5.70
2023-01-09T06:11:05.014Z,6.70
2023-01-09T06:13:32.904Z,6.40
2023-01-09T06:16:00.800Z,5.50
2023-01-09T06:18:28.767Z,6.60
2023-01-09T06:20:56.666Z,5.50
2023-01-09T06:23:24.549Z,5.40
2023-01-09T06:25:53.772Z,5.30
2023-01-09T06:28:21.666Z,5.50
2023-01-09T06:30:51.958Z,6.20
2023-01-09T06:33:20.317Z,5.80
2023-01-09T06:35:48.224Z,5.20
2023-01-09T06:38:16.147Z,6.00
2023-01-09T06:40:44.024Z,6.50
2023-01-09T06:43:13.328Z,7.10
2023-01-09T06:45:42.552Z,4.80
2023-01-09T06:48:10.629Z,6.00
2023-01-09T06:50:38.545Z,6.10
2023-01-09T06:53:06.412Z,5.00
2023-01-09T06:55:34.328Z,6.20
2023-01-09T06:58:02.205Z,5.60
2023-01-09T07:00:31.817Z,6.00
2023-01-09T07:02:59.735Z,4.90
2023-01-09T07:05:27.646Z,5.70
2023-01-09T07:07:56.887Z,4.70
2023-01-09T07:10:24.974Z,6.40
2023-01-09T07:12:52.867Z,4.80
2023-01-09T07:15:20.763Z,5.60
2023-01-09T07:17:50.277Z,4.50
2023-01-09T07:20:18.628Z,4.50
2023-01-09T07:22:46.611Z,5.50
2023-01-09T07:25:14.612Z,5.80
2023-01-09T07:27:42.495Z,4.30
2023-01-09T07:30:11.824Z,5.60
2023-01-09T07:32:40.976Z,4.70
2023-01-09T07:35:11.351Z,6.00
2023-01-09T07:37:39.234Z,4.40
2023-01-09T07:40:08.627Z,4.40
2023-01-09T07:42:36.507Z,4.60
2023-01-09T07:45:04.823Z,6.70
2023-01-09T07:47:32.893Z,4.60
2023-01-09T07:50:00.845Z,6.10
2023-01-09T07:52:30.084Z,4.40
2023-01-09T07:54:57.973Z,6.00
2023-01-09T07:57:25.891Z,6.10
2023-01-09T07:59:53.824Z,4.80
2023-01-09T08:02:21.814Z,4.50
2023-01-09T08:04:50.064Z,6.40
2023-01-09T08:07:18.008Z,5.30
2023-01-09T08:09:47.332Z,7.30
2023-01-09T08:12:15.235Z,4.60
2023-01-09T08:14:43.089Z,5.30
2023-01-09T08:17:11.701Z,6.40
2023-01-09T08:19:40.228Z,7.20
2023-01-09T08:22:08.106Z,6.30
2023-01-09T08:24:36.663Z,6.30
2023-01-09T08:27:06.027Z,6.00
2023-01-09T08:29:33.950Z,5.90
2023-01-09T08:32:01.866Z,6.60
2023-01-09T08:34:30.529Z,5.80
2023-01-09T08:36:59.331Z,5.40
2023-01-09T08:39:27.469Z,6.70
2023-01-09T08:42:12.999Z,6.20
2023-01-09T08:45:02.991Z,6.40
2023-01-09T08:47:33.490Z,5.60
2023-01-09T08:50:01.748Z,6.40
2023-01-09T08:52:30.711Z,5.70
2023-01-09T08:54:58.626Z,6.40
2023-01-09T08:57:26.708Z,5.90
2023-01-09T08:59:56.071Z,5.90
2023-01-09T09:02:24.019Z,6.40
2023-01-09T09:04:53.017Z,6.40
2023-01-09T09:07:26.618Z,6.20
2023-01-09T09:09:54.762Z,6.10
2023-01-09T09:12:23.187Z,6.10
2023-01-09T09:15:08.484Z,6.20
2023-01-09T09:17:37.762Z,6.20
2023-01-09T09:20:06.490Z,6.40
2023-01-09T09:22:34.380Z,6.40
2023-01-09T09:25:03.316Z,6.50
2023-01-09T09:27:31.314Z,6.60
2023-01-09T09:29:59.250Z,6.40
2023-01-09T09:32:27.166Z,6.50
2023-01-09T09:34:56.403Z,6.70
2023-01-09T09:37:24.304Z,6.70
2023-01-09T09:39:52.207Z,6.60
2023-01-09T09:43:06.557Z,6.70
2023-01-09T09:45:48.873Z,6.80
2023-01-09T09:48:29.059Z,6.80
2023-01-09T09:51:26.499Z,6.80
2023-01-09T09:53:59.870Z,6.80
2023-01-09T09:56:30.887Z,6.80
2023-01-09T09:59:01.874Z,6.70
2023-01-09T10:01:37.555Z,6.90
2023-01-09T10:04:11.322Z,7.00
2023-01-09T10:06:44.208Z,8.20
2023-01-09T10:09:21.735Z,7.30
2023-01-09T10:11:56.774Z,7.50
2023-01-09T10:14:24.978Z,9.00
2023-01-09T10:17:12.929Z,7.70
2023-01-09T10:20:08.363Z,7.70
2023-01-09T10:22:48.424Z,7.70
2023-01-09T10:25:25.410Z,9.10
2023-01-09T10:28:20.685Z,7.70
2023-01-09T10:30:51.614Z,7.70
2023-01-09T10:33:32.759Z,7.70
2023-01-09T10:36:28.872Z,7.70
2023-01-09T10:39:04.103Z,7.70
2023-01-09T10:41:37.573Z,7.70
2023-01-09T10:44:08.296Z,8.40
2023-01-09T10:46:42.486Z,7.90
2023-01-09T10:49:14.425Z,7.90
2023-01-09T10:51:49.411Z,8.00
2023-01-09T10:54:23.291Z,8.00
2023-01-09T10:56:56.281Z,8.10
2023-01-09T10:59:24.460Z,8.00
2023-01-09T11:01:52.721Z,9.20
2023-01-09T11:04:30.695Z,9.10
2023-01-09T11:07:01.895Z,8.30
2023-01-09T11:09:57.985Z,8.00
2023-01-09T11:12:27.765Z,8.30
2023-01-09T11:14:56.205Z,7.80
2023-01-09T11:17:27.968Z,8.80
2023-01-09T11:20:04.210Z,8.30
2023-01-09T11:22:44.382Z,8.30
2023-01-09T11:25:16.599Z,8.40
2023-01-09T11:27:44.600Z,8.40
2023-01-09T11:30:24.141Z,8.50
2023-01-09T11:32:52.117Z,8.50
2023-01-09T11:35:24.369Z,8.40
2023-01-09T11:38:02.758Z,8.40
2023-01-09T11:40:36.888Z,8.40
2023-01-09T11:43:14.324Z,9.30
2023-01-09T11:46:00.157Z,8.30
2023-01-09T11:48:35.992Z,8.50
2023-01-09T11:51:06.687Z,8.40
2023-01-09T11:53:51.887Z,8.50
2023-01-09T11:56:21.196Z,8.90
2023-01-09T11:58:49.239Z,8.40
2023-01-09T12:01:35.362Z,8.50
2023-01-09T12:04:24.952Z,8.50
2023-01-09T12:07:08.463Z,8.50
2023-01-09T12:09:45.050Z,8.40
2023-01-09T12:12:25.144Z,8.30
2023-01-09T12:15:15.944Z,8.30
2023-01-09T12:18:00.079Z,8.20
2023-01-09T12:20:46.524Z,8.30
2023-01-09T12:23:34.586Z,8.30
2023-01-09T12:26:14.386Z,8.60
2023-01-09T12:29:06.144Z,8.20
2023-01-09T12:31:50.228Z,8.20
2023-01-09T12:34:34.872Z,8.20
2023-01-09T12:37:15.564Z,7.60
2023-01-09T12:39:53.937Z,8.20
2023-01-09T12:42:37.228Z,8.60
2023-01-09T12:45:19.741Z,8.10
2023-01-09T12:47:49.055Z,8.10
2023-01-09T12:50:44.965Z,8.00
2023-01-09T12:53:22.284Z,8.10
2023-01-09T12:55:58.123Z,8.00
2023-01-09T12:58:35.520Z,8.10
2023-01-09T13:01:09.087Z,8.20
2023-01-09T13:03:41.731Z,8.00
2023-01-09T13:06:15.413Z,8.20
2023-01-09T13:08:48.269Z,8.20
2023-01-09T13:11:21.271Z,8.20
2023-01-09T13:13:55.583Z,8.20
2023-01-09T13:16:28.304Z,8.20
2023-01-09T13:19:00.087Z,8.20
2023-01-09T13:21:28.414Z,8.20
2023-01-09T13:24:05.035Z,8.10
2023-01-09T13:26:37.421Z,8.10
2023-01-09T13:29:11.229Z,8.00
2023-01-09T13:31:58.023Z,8.00
2023-01-09T13:34:28.105Z,8.00
2023-01-09T13:36:57.594Z,8.00
2023-01-09T13:39:27.315Z,9.30
2023-01-09T13:42:16.743Z,7.80
2023-01-09T13:44:45.613Z,7.90
2023-01-09T13:47:20.693Z,7.80
2023-01-09T13:50:17.441Z,7.80
2023-01-09T13:52:45.631Z,7.70
2023-01-09T13:55:26.321Z,7.70
2023-01-09T13:58:18.821Z,7.70
2023-01-09T14:00:50.255Z,7.40
2023-01-09T14:03:22.860Z,7.70
2023-01-09T14:06:20.569Z,7.70
2023-01-09T14:08:51.067Z,7.70
2023-01-09T14:11:27.434Z,7.70
2023-01-09T14:14:06.948Z,7.30
2023-01-09T14:16:36.712Z,7.70
2023-01-09T14:19:20.007Z,7.70
2023-01-09T14:21:52.085Z,7.70
2023-01-09T14:24:32.434Z,7.70
2023-01-09T14:27:01.750Z,7.70
2023-01-09T14:29:47.304Z,7.70
2023-01-09T14:32:46.252Z,7.70
2023-01-09T14:35:26.463Z,7.60
2023-01-09T14:38:05.698Z,7.50
2023-01-09T14:40:35.217Z,7.40
2023-01-09T14:43:13.371Z,7.30
2023-01-09T14:45:45.196Z,7.20
2023-01-09T14:48:13.890Z,7.10
2023-01-09T14:50:46.743Z,6.90
2023-01-09T14:53:17.467Z,6.90
2023-01-09T14:55:52.059Z,6.80
2023-01-09T14:58:22.686Z,6.70
2023-01-09T15:00:55.572Z,6.60
2023-01-09T15:03:25.361Z,6.60
2023-01-09T15:05:54.876Z,6.60
2023-01-09T15:08:25.924Z,6.50
2023-01-09T15:10:55.571Z,6.60
2023-01-09T15:13:36.101Z,6.50
2023-01-09T15:16:06.877Z,6.50
2023-01-09T15:18:41.125Z,6.50
2023-01-09T15:21:19.895Z,6.90
2023-01-09T15:23:47.859Z,7.20
2023-01-09T15:26:25.753Z,6.80
2023-01-09T15:28:54.776Z,6.30
2023-01-09T15:31:25.250Z,6.30
2023-01-09T15:33:54.194Z,6.50
2023-01-09T15:36:26.074Z,6.20
2023-01-09T15:38:55.102Z,6.20
2023-01-09T15:41:44.953Z,6.40
2023-01-09T15:44:17.007Z,6.20
2023-01-09T15:46:46.355Z,6.10
2023-01-09T15:49:15.513Z,6.70
2023-01-09T15:51:46.298Z,6.50
2023-01-09T15:54:16.107Z,6.80
2023-01-09T15:56:46.609Z,6.90
2023-01-09T15:59:27.003Z,6.20
2023-01-09T16:02:15.264Z,6.80
2023-01-09T16:04:43.199Z,6.20
2023-01-09T16:07:16.348Z,6.20
2023-01-09T16:09:47.384Z,6.30
2023-01-09T16:12:21.107Z,6.50
2023-01-09T16:14:53.370Z,6.70
2023-01-09T16:17:23.860Z,6.20
2023-01-09T16:19:53.408Z,6.30
2023-01-09T16:22:25.407Z,6.90
2023-01-09T16:24:54.539Z,6.20
2023-01-09T16:27:25.939Z,6.20
2023-01-09T16:29:57.803Z,6.20
2023-01-09T16:32:28.561Z,6.20
2023-01-09T16:34:59.751Z,6.60
2023-01-09T16:37:29.709Z,6.20
2023-01-09T16:40:25.665Z,5.90
2023-01-09T16:43:00.495Z,6.30
2023-01-09T16:45:30.390Z,6.10
2023-01-09T16:47:58.509Z,6.10
2023-01-09T16:50:26.811Z,6.30
2023-01-09T16:52:56.621Z,6.60
2023-01-09T16:55:24.478Z,6.00
2023-01-09T16:57:52.472Z,6.30
2023-01-09T17:00:22.320Z,6.30
2023-01-09T17:02:50.294Z,5.90
2023-01-09T17:05:18.207Z,6.50
2023-01-09T17:07:46.122Z,5.90
2023-01-09T17:10:22.001Z,5.70
2023-01-09T17:12:50.407Z,5.90
2023-01-09T17:15:18.332Z,5.80
2023-01-09T17:17:46.197Z,6.40
2023-01-09T17:20:19.050Z,6.60
2023-01-09T17:22:46.995Z,6.20
2023-01-09T17:25:34.790Z,6.50
2023-01-09T17:28:21.580Z,5.70
2023-01-09T17:30:49.439Z,6.40
2023-01-09T17:33:18.446Z,5.70
2023-01-09T17:35:46.728Z,6.60
2023-01-09T17:38:15.362Z,6.50
2023-01-09T17:40:45.400Z,5.80
2023-01-09T17:43:13.381Z,6.70
2023-01-09T17:45:42.579Z,6.30
2023-01-09T17:48:16.509Z,6.70
2023-01-09T17:50:45.282Z,6.50
2023-01-09T17:53:13.696Z,6.20
2023-01-09T17:55:42.657Z,5.70
2023-01-09T17:58:25.544Z,6.00
2023-01-09T18:00:53.872Z,5.70
2023-01-09T18:03:23.023Z,5.80
2023-01-09T18:05:51.076Z,5.80
2023-01-09T18:08:19.389Z,6.40
2023-01-09T18:10:48.537Z,5.90
2023-01-09T18:13:17.979Z,6.10
2023-01-09T18:15:46.046Z,6.30
2023-01-09T18:18:16.039Z,5.90
2023-01-09T18:20:45.298Z,5.90
2023-01-09T18:23:13.494Z,6.80
2023-01-09T18:25:42.215Z,6.60
2023-01-09T18:28:10.915Z,6.00
2023-01-09T18:30:40.264Z,6.40
2023-01-09T18:33:08.128Z,6.30
2023-01-09T18:35:36.021Z,6.00
2023-01-09T18:38:03.991Z,6.00
2023-01-09T18:40:33.056Z,6.00
2023-01-09T18:43:04.921Z,6.20
2023-01-09T18:45:33.096Z,6.10
2023-01-09T18:48:02.413Z,6.40
2023-01-09T18:50:30.321Z,6.90
2023-01-09T18:52:59.660Z,6.40
2023-01-09T18:55:27.970Z,6.40
2023-01-09T18:57:56.982Z,7.10
2023-01-09T19:00:24.965Z,6.70
2023-01-09T19:02:52.932Z,6.60
2023-01-09T19:05:22.181Z,6.10
2023-01-09T19:07:50.107Z,5.90
2023-01-09T19:10:18.473Z,6.00
2023-01-09T19:12:46.406Z,6.10
2023-01-09T19:15:14.297Z,6.10
2023-01-09T19:17:42.282Z,6.10
2023-01-09T19:20:11.625Z,6.10
2023-01-09T19:22:40.887Z,6.10
2023-01-09T19:25:11.864Z,6.10
2023-01-09T19:27:39.766Z,6.10
2023-01-09T19:30:09.766Z,6.10
2023-01-09T19:32:38.293Z,6.10
2023-01-09T19:35:06.760Z,6.70
2023-01-09T19:37:37.124Z,6.10
2023-01-09T19:40:07.594Z,6.30
2023-01-09T19:42:35.466Z,6.10
2023-01-09T19:45:03.464Z,6.50
2023-01-09T19:47:35.441Z,6.20
2023-01-09T19:50:05.174Z,6.20
2023-01-09T19:52:33.233Z,6.20
2023-01-09T19:55:01.306Z,6.20
2023-01-09T19:57:30.539Z,6.90
2023-01-09T19:59:58.564Z,6.20
2023-01-09T20:02:27.816Z,7.00
2023-01-09T20:04:55.726Z,6.20
2023-01-09T20:07:23.587Z,6.20
2023-01-09T20:09:51.461Z,5.70
2023-01-09T20:12:19.348Z,6.20
2023-01-09T20:14:48.559Z,6.10
2023-01-09T20:17:17.801Z,6.20
2023-01-09T20:19:46.122Z,6.10
2023-01-09T20:22:14.072Z,6.10
2023-01-09T20:24:41.960Z,6.50
2023-01-09T20:27:09.913Z,6.40
2023-01-09T20:29:37.775Z,6.10
2023-01-09T20:32:07.668Z,5.90
2023-01-09T20:34:35.550Z,5.90
2023-01-09T20:37:03.461Z,6.50
2023-01-09T20:39:31.341Z,6.80
2023-01-09T20:41:59.179Z,5.90
2023-01-09T20:44:27.050Z,6.80
2023-01-09T20:46:54.922Z,6.50
2023-01-09T20:49:24.361Z,5.80
2023-01-09T20:51:53.205Z,6.50
2023-01-09T20:54:22.896Z,5.80
2023-01-09T20:56:51.732Z,5.80
2023-01-09T20:59:21.906Z,5.80
2023-01-09T21:01:49.920Z,5.70
2023-01-09T21:04:18.864Z,6.60
2023-01-09T21:06:50.152Z,5.70
2023-01-09T21:09:18.459Z,6.30
2023-01-09T21:11:46.393Z,5.80
2023-01-09T21:14:14.233Z,6.60
2023-01-09T21:16:42.476Z,6.80
2023-01-09T21:19:11.864Z,6.30
2023-01-09T21:21:39.779Z,6.70
2023-01-09T21:24:09.407Z,6.80
2023-01-09T21:26:37.280Z,6.70
2023-01-09T21:29:08.215Z,6.40
2023-01-09T21:31:36.249Z,5.70
2023-01-09T21:34:06.560Z,6.40
2023-01-09T21:36:36.133Z,5.90
2023-01-09T21:39:08.156Z,5.70
2023-01-09T21:41:55.014Z,5.70
2023-01-09T21:44:40.531Z,6.70
2023-01-09T21:47:08.414Z,6.40
2023-01-09T21:49:36.303Z,6.00
2023-01-09T21:52:05.075Z,6.50
2023-01-09T21:54:33.689Z,5.30
2023-01-09T21:57:04.046Z,5.80
2023-01-09T21:59:32.136Z,5.00
2023-01-09T22:02:00.448Z,6.00
2023-01-09T22:04:30.326Z,5.10
2023-01-09T22:06:58.310Z,6.30
2023-01-09T22:09:26.267Z,5.20
2023-01-09T22:11:54.141Z,5.20
2023-01-09T22:14:23.445Z,5.90
2023-01-09T22:16:51.290Z,5.20
2023-01-09T22:19:19.465Z,5.70
2023-01-09T22:21:47.831Z,6.30
2023-01-09T22:24:17.562Z,5.30
2023-01-09T22:26:45.577Z,5.60
2023-01-09T22:29:13.611Z,5.40
2023-01-09T22:31:43.152Z,6.50
2023-01-09T22:34:15.317Z,6.70
2023-01-09T22:36:43.428Z,6.20
2023-01-09T22:39:13.071Z,6.90
2023-01-09T22:41:41.344Z,6.70
2023-01-09T22:44:11.532Z,6.70
2023-01-09T22:46:40.024Z,5.80
2023-01-09T22:49:11.891Z,5.70
2023-01-09T22:51:39.836Z,5.60
2023-01-09T22:54:07.951Z,5.90
2023-01-09T22:56:36.154Z,5.90
2023-01-09T22:59:04.117Z,6.70
2023-01-09T23:01:31.965Z,5.80
2023-01-09T23:03:59.858Z,6.60
2023-01-09T23:06:29.140Z,6.60
2023-01-09T23:08:56.999Z,5.70
2023-01-09T23:11:44.823Z,6.40
2023-01-09T23:14:13.056Z,5.60
2023-01-09T23:16:41.744Z,5.70
2023-01-09T23:19:12.774Z,6.50
2023-01-09T23:21:42.107Z,6.60
2023-01-09T23:24:10.901Z,5.70
2023-01-09T23:26:39.468Z,6.70
2023-01-09T23:29:07.675Z,5.80
2023-01-09T23:31:36.064Z,5.70
2023-01-09T23:34:04.927Z,6.00
2023-01-09T23:36:32.820Z,6.60
2023-01-09T23:39:04.059Z,6.20
2023-01-09T23:41:45.834Z,6.20
2023-01-09T23:44:13.735Z,6.40
2023-01-09T23:46:41.591Z,6.60
2023-01-09T23:49:09.832Z,6.30
2023-01-09T23:51:37.729Z,5.70
2023-01-09T23:54:06.979Z,5.90
2023-01-09T23:56:34.946Z,6.70
2023-01-09T23:59:03.415Z,5.80
